Owensboro, KY

6:28 AM CDT on August 24, 2016 (GMT -0500)
Owensboro-Daviess County | | Change Station

Elev 407 ft 37.74 °N, 87.17 °W | Updated 32 minutes ago

Partly Cloudy
Partly Cloudy
70 °F
Feels Like 70 °F
N
6
Wind Variable Wind from South

Today
High -- | Low -- °F
--% Chance of Precip.
Yesterday
High -- | Low -- °F
Precip. -- in
Pressure 30.16 in
Visibility 10.0 miles
Clouds Few 3200 ft
Dew Point 70 °F
Humidity 100%
Rainfall 0.00 in
Snow Depth Not available.
6:12 AM 7:29 PM
Waning Gibbous, 58% visible
METAR KOWB 241056Z 17005KT 10SM FEW032 21/21 A3017 RMK AO2 T02110211 SLP211
Pressure 30.16 in
Visibility 10.0 miles
Clouds Few 3200 ft
Dew Point 70 °F
Humidity 100%
Rainfall 0.00 in
Snow Depth Not available.
6:12 AM 7:29 PM
Waning Gibbous, 58% visible
METAR KOWB 241056Z 17005KT 10SM FEW032 21/21 A3017 RMK AO2 T02110211 SLP211

10-Day Weather Forecast

Almanac

Astronomy

Aug. 24, 2016 Rise Set
Actual Time
Civil Twilight
Nautical Twilight
Astronomical Twilight
Moon
Length of Visible Light
Length of Day
Tomorrow will be .
, % of the Moon is Illuminated

Today's Extremes

State Highs State Lows

Community

WunderPhotos

Upload Photos

1,934,565 photos uploaded!

WunderBlog® & News

Nearby

Air Quality

  Air Quality AQ Index Pollutant
Not available.

Snow Depth

Station Depth Elevation

Earthquake Activity

City Distance Mag. Time & Date
Minimum magnitude displayed is 2.5.

Coastal Water Temperatures

Place Temperature

Stations

Nearby Weather Stations

Station Location Temp. Windchill Dew Point Humidity Wind Precip. Elev Updated Type
                   

Watches & Warnings

There are currently no watches in effect.